createdAt,value
2022-10-18T00:00:01.831Z,6.32
2022-10-18T00:02:38.386Z,6.28
2022-10-18T00:05:14.064Z,6.47
2022-10-18T00:07:47.936Z,6.25
2022-10-18T00:10:22.447Z,6.43
2022-10-18T00:12:56.509Z,5.57
2022-10-18T00:15:30.579Z,6.30
2022-10-18T00:18:04.582Z,6.38
2022-10-18T00:20:40.089Z,5.95
2022-10-18T00:23:14.230Z,6.13
2022-10-18T00:25:48.134Z,5.97
2022-10-18T00:28:22.017Z,5.97
2022-10-18T00:30:56.012Z,5.88
2022-10-18T00:33:29.913Z,6.13
2022-10-18T00:36:05.456Z,6.03
2022-10-18T00:38:40.052Z,5.88
2022-10-18T00:41:16.865Z,6.13
2022-10-18T00:43:56.209Z,6.18
2022-10-18T00:46:31.983Z,5.95
2022-10-18T00:49:08.972Z,6.47
2022-10-18T00:51:47.527Z,5.43
2022-10-18T00:54:23.290Z,6.13
2022-10-18T00:56:57.556Z,5.55
2022-10-18T00:59:32.093Z,6.05
2022-10-18T01:02:07.280Z,5.00
2022-10-18T01:04:41.257Z,5.55
2022-10-18T01:07:27.069Z,4.88
2022-10-18T01:10:09.174Z,5.03
2022-10-18T01:12:54.156Z,4.95
2022-10-18T01:15:30.385Z,4.85
2022-10-18T01:18:11.204Z,4.60
2022-10-18T01:21:10.266Z,4.72
2022-10-18T01:24:08.751Z,5.00
2022-10-18T01:27:02.639Z,4.90
2022-10-18T01:29:48.119Z,5.20
2022-10-18T01:32:28.073Z,4.22
2022-10-18T01:35:08.319Z,4.95
2022-10-18T01:37:44.876Z,5.13
2022-10-18T01:40:21.986Z,4.40
2022-10-18T01:42:56.730Z,5.13
2022-10-18T01:45:31.649Z,4.20
2022-10-18T01:48:07.903Z,4.25
2022-10-18T01:50:41.964Z,4.47
2022-10-18T01:53:31.461Z,5.43
2022-10-18T01:56:25.585Z,4.53
2022-10-18T01:59:13.225Z,3.97
2022-10-18T02:01:56.551Z,4.90
2022-10-18T02:04:48.435Z,4.20
2022-10-18T02:07:29.541Z,3.80
2022-10-18T02:10:10.301Z,4.30
2022-10-18T02:12:48.073Z,4.53
2022-10-18T02:15:26.400Z,3.83
2022-10-18T02:18:00.359Z,4.22
2022-10-18T02:20:37.908Z,3.97
2022-10-18T02:23:13.194Z,4.05
2022-10-18T02:25:47.390Z,4.30
2022-10-18T02:28:21.959Z,4.10
2022-10-18T02:31:14.973Z,4.57
2022-10-18T02:33:54.656Z,3.83
2022-10-18T02:36:36.036Z,3.83
2022-10-18T02:39:15.247Z,3.65
2022-10-18T02:41:49.394Z,4.43
2022-10-18T02:44:23.394Z,4.18
2022-10-18T02:46:57.467Z,3.95
2022-10-18T02:49:31.365Z,3.13
2022-10-18T02:52:06.752Z,4.00
2022-10-18T02:54:40.659Z,3.95
2022-10-18T02:57:14.540Z,3.95
2022-10-18T02:59:48.434Z,3.90
2022-10-18T03:02:22.508Z,3.40
2022-10-18T03:04:56.457Z,3.35
2022-10-18T03:07:31.984Z,4.28
2022-10-18T03:10:06.847Z,4.00
2022-10-18T03:12:40.817Z,3.80
2022-10-18T03:15:14.767Z,3.85
2022-10-18T03:17:48.920Z,3.88
2022-10-18T03:20:23.568Z,3.47
2022-10-18T03:22:59.028Z,4.38
2022-10-18T03:25:32.923Z,3.90
2022-10-18T03:28:07.081Z,3.72
2022-10-18T03:30:40.954Z,4.05
2022-10-18T03:33:14.861Z,3.53
2022-10-18T03:35:48.753Z,3.58
2022-10-18T03:38:24.183Z,3.47
2022-10-18T03:40:58.076Z,3.45
2022-10-18T03:43:31.972Z,3.53
2022-10-18T03:46:06.166Z,3.45
2022-10-18T03:48:40.293Z,3.80
2022-10-18T03:51:14.179Z,3.40
2022-10-18T03:53:49.481Z,3.85
2022-10-18T03:56:23.352Z,3.65
2022-10-18T03:58:57.261Z,3.65
2022-10-18T04:01:31.276Z,3.55
2022-10-18T04:04:06.425Z,3.50
2022-10-18T04:06:40.465Z,4.00
2022-10-18T04:09:15.977Z,3.85
2022-10-18T04:11:51.730Z,3.80
2022-10-18T04:14:25.622Z,3.42
2022-10-18T04:16:59.488Z,3.83
2022-10-18T04:19:33.390Z,3.47
2022-10-18T04:22:07.461Z,4.28
2022-10-18T04:24:42.782Z,3.83
2022-10-18T04:27:16.758Z,2.92
2022-10-18T04:29:50.653Z,4.40
2022-10-18T04:32:24.710Z,3.53
2022-10-18T04:34:58.611Z,4.18
2022-10-18T04:37:32.766Z,3.63
2022-10-18T04:40:09.888Z,3.70
2022-10-18T04:42:43.788Z,3.88
2022-10-18T04:45:17.837Z,3.60
2022-10-18T04:47:51.742Z,3.67
2022-10-18T04:50:25.619Z,3.33
2022-10-18T04:52:59.572Z,3.42
2022-10-18T04:55:34.859Z,3.90
2022-10-18T04:58:08.775Z,3.75
2022-10-18T05:00:43.640Z,3.38
2022-10-18T05:03:18.067Z,4.30
2022-10-18T05:06:06.998Z,4.15
2022-10-18T05:08:40.898Z,4.22
2022-10-18T05:11:16.246Z,4.25
2022-10-18T05:13:50.966Z,3.78
2022-10-18T05:16:24.907Z,4.03
2022-10-18T05:18:58.927Z,4.25
2022-10-18T05:21:33.055Z,4.22
2022-10-18T05:24:07.646Z,3.67
2022-10-18T05:26:42.931Z,3.65
2022-10-18T05:29:16.906Z,4.63
2022-10-18T05:31:51.068Z,3.80
2022-10-18T05:34:27.368Z,4.00
2022-10-18T05:37:02.028Z,4.72
2022-10-18T05:39:35.937Z,4.82
2022-10-18T05:42:11.186Z,4.47
2022-10-18T05:44:45.047Z,3.63
2022-10-18T05:47:18.945Z,3.55
2022-10-18T05:49:52.809Z,3.97
2022-10-18T05:52:26.749Z,4.18
2022-10-18T05:55:00.641Z,4.55
2022-10-18T05:57:35.963Z,8.23
2022-10-18T06:00:11.495Z,7.47
2022-10-18T06:02:49.801Z,8.55
2022-10-18T06:05:24.201Z,7.13
2022-10-18T06:07:58.475Z,7.78
2022-10-18T06:10:32.710Z,7.13
2022-10-18T06:13:08.409Z,6.88
2022-10-18T06:15:42.264Z,5.93
2022-10-18T06:18:16.145Z,6.82
2022-10-18T06:20:50.349Z,6.45
2022-10-18T06:23:24.249Z,7.05
2022-10-18T06:26:00.748Z,5.68
2022-10-18T06:28:38.126Z,5.78
2022-10-18T06:31:13.518Z,6.07
2022-10-18T06:33:47.628Z,5.50
2022-10-18T06:36:22.675Z,5.25
2022-10-18T06:38:57.783Z,5.10
2022-10-18T06:41:31.665Z,5.53
2022-10-18T06:44:25.419Z,5.05
2022-10-18T06:46:59.480Z,5.70
2022-10-18T06:49:33.603Z,4.85
2022-10-18T06:52:07.574Z,5.45
2022-10-18T06:54:41.461Z,5.55
2022-10-18T06:57:15.427Z,4.95
2022-10-18T06:59:52.115Z,5.18
2022-10-18T07:02:26.046Z,4.90
2022-10-18T07:05:00.023Z,4.38
2022-10-18T07:07:34.367Z,4.65
2022-10-18T07:10:12.951Z,4.00
2022-10-18T07:12:47.288Z,4.88
2022-10-18T07:15:24.244Z,5.25
2022-10-18T07:17:58.345Z,5.00
2022-10-18T07:20:32.541Z,4.55
2022-10-18T07:23:08.616Z,5.40
2022-10-18T07:25:42.545Z,5.22
2022-10-18T07:28:16.429Z,5.10
2022-10-18T07:30:51.800Z,4.63
2022-10-18T07:33:26.131Z,5.00
2022-10-18T07:36:03.353Z,4.82
2022-10-18T07:38:38.532Z,5.32
2022-10-18T07:41:13.883Z,5.38
2022-10-18T07:43:50.960Z,4.57
2022-10-18T07:46:26.947Z,4.65
2022-10-18T07:49:00.898Z,4.75
2022-10-18T07:51:36.448Z,5.30
2022-10-18T07:54:10.975Z,5.38
2022-10-18T07:56:44.937Z,5.75
2022-10-18T07:59:18.872Z,5.88
2022-10-18T08:01:54.331Z,5.40
2022-10-18T08:04:28.282Z,6.47
2022-10-18T08:07:02.156Z,5.47
2022-10-18T08:09:36.039Z,5.57
2022-10-18T08:12:10.125Z,5.88
2022-10-18T08:14:44.022Z,6.15
2022-10-18T08:17:19.415Z,6.28
2022-10-18T08:20:05.007Z,6.50
2022-10-18T08:22:46.505Z,6.35
2022-10-18T08:25:20.990Z,8.13
2022-10-18T08:27:54.866Z,8.50
2022-10-18T08:30:28.918Z,8.82
2022-10-18T08:33:04.491Z,8.38
2022-10-18T08:35:38.396Z,8.18
2022-10-18T08:38:16.589Z,9.23
2022-10-18T08:40:53.331Z,8.55
2022-10-18T08:43:38.445Z,8.63
2022-10-18T08:46:14.006Z,8.00
2022-10-18T08:48:51.694Z,8.05
2022-10-18T08:51:31.643Z,9.10
2022-10-18T08:54:08.913Z,8.85
2022-10-18T08:56:46.904Z,10.23
2022-10-18T08:59:24.723Z,10.30
2022-10-18T09:02:12.329Z,9.77
2022-10-18T09:04:54.325Z,9.07
2022-10-18T09:07:53.177Z,9.27
2022-10-18T09:10:41.637Z,10.18
2022-10-18T09:13:38.428Z,9.98
2022-10-18T09:16:17.391Z,9.05
2022-10-18T09:18:59.845Z,8.45
2022-10-18T09:21:46.572Z,9.35
2022-10-18T09:24:29.328Z,8.38
2022-10-18T09:27:11.530Z,10.05
2022-10-18T09:30:04.759Z,9.35
2022-10-18T09:32:49.374Z,9.70
2022-10-18T09:35:28.724Z,9.68
2022-10-18T09:38:07.134Z,9.70
2022-10-18T09:40:49.333Z,8.70
2022-10-18T09:43:26.252Z,9.38
2022-10-18T09:46:00.389Z,9.55
2022-10-18T09:48:40.466Z,10.38
2022-10-18T09:51:21.992Z,9.30
2022-10-18T09:54:11.010Z,8.77
2022-10-18T09:56:50.383Z,9.00
2022-10-18T09:59:39.095Z,9.93
2022-10-18T10:02:16.963Z,9.35
2022-10-18T10:04:51.715Z,9.55
2022-10-18T10:07:31.043Z,9.88
2022-10-18T10:10:17.578Z,9.80
2022-10-18T10:13:05.200Z,9.68
2022-10-18T10:15:42.373Z,9.30
2022-10-18T10:18:22.514Z,9.27
2022-10-18T10:20:58.019Z,9.98
2022-10-18T10:23:34.568Z,10.45
2022-10-18T10:26:24.400Z,10.38
2022-10-18T10:28:58.309Z,10.60
2022-10-18T10:31:33.199Z,11.13
2022-10-18T10:34:19.423Z,10.43
2022-10-18T10:36:54.904Z,10.15
2022-10-18T10:39:28.785Z,11.35
2022-10-18T10:42:05.842Z,11.88
2022-10-18T10:44:56.567Z,11.88
2022-10-18T10:47:33.865Z,11.55
2022-10-18T10:50:13.259Z,12.20
2022-10-18T10:52:49.745Z,12.52
2022-10-18T10:55:35.168Z,12.07
2022-10-18T10:58:18.989Z,12.50
2022-10-18T11:00:53.074Z,13.07
2022-10-18T11:03:29.561Z,12.23
2022-10-18T11:06:03.915Z,12.00
2022-10-18T11:08:43.763Z,11.00
2022-10-18T11:11:27.005Z,11.27
2022-10-18T11:14:24.618Z,12.23
2022-10-18T11:17:08.645Z,11.30
2022-10-18T11:19:53.284Z,11.13
2022-10-18T11:22:29.537Z,12.05
2022-10-18T11:25:05.254Z,10.00
2022-10-18T11:27:45.573Z,10.05
2022-10-18T11:30:42.349Z,11.07
2022-10-18T11:33:50.170Z,10.25
2022-10-18T11:36:29.987Z,10.27
2022-10-18T11:39:12.264Z,9.68
2022-10-18T11:41:53.580Z,11.50
2022-10-18T11:44:37.056Z,10.57
2022-10-18T11:47:18.690Z,9.52
2022-10-18T11:50:09.052Z,10.52
2022-10-18T11:52:54.186Z,10.88
2022-10-18T11:55:38.963Z,9.48
2022-10-18T11:58:27.511Z,11.70
2022-10-18T12:01:09.458Z,10.13
2022-10-18T12:03:55.538Z,10.45
2022-10-18T12:06:34.427Z,10.55
2022-10-18T12:09:18.497Z,12.10
2022-10-18T12:11:59.077Z,11.05
2022-10-18T12:14:39.231Z,12.18
2022-10-18T12:17:41.843Z,13.32
2022-10-18T12:20:22.245Z,12.93
2022-10-18T12:23:02.276Z,12.75
2022-10-18T12:25:40.803Z,13.32
2022-10-18T12:28:22.039Z,13.20
2022-10-18T12:31:02.205Z,14.18
2022-10-18T12:33:40.850Z,12.55
2022-10-18T12:36:30.263Z,12.38
2022-10-18T12:39:08.401Z,14.13
2022-10-18T12:41:42.501Z,12.93
2022-10-18T12:44:22.405Z,14.88
2022-10-18T12:46:58.614Z,15.38
2022-10-18T12:49:35.284Z,15.48
2022-10-18T12:52:24.775Z,13.60
2022-10-18T12:55:30.350Z,15.10
2022-10-18T12:58:22.359Z,13.18
2022-10-18T13:01:02.617Z,14.55
2022-10-18T13:04:00.743Z,13.63
2022-10-18T13:07:22.583Z,12.60
2022-10-18T13:10:41.560Z,13.88
2022-10-18T13:13:47.187Z,12.77
2022-10-18T13:16:35.663Z,13.32
2022-10-18T13:19:23.157Z,13.70
2022-10-18T13:22:13.530Z,13.88
2022-10-18T13:25:02.036Z,11.40
2022-10-18T13:27:45.133Z,13.75
2022-10-18T13:30:34.189Z,11.93
2022-10-18T13:33:27.744Z,13.25
2022-10-18T13:36:04.359Z,14.13
2022-10-18T13:38:48.648Z,14.38
2022-10-18T13:44:26.297Z,13.55
2022-10-18T13:47:38.740Z,14.20
2022-10-18T13:50:35.946Z,12.68
2022-10-18T13:53:36.650Z,13.15
2022-10-18T13:56:32.704Z,13.27
2022-10-18T14:02:57.687Z,13.38
2022-10-18T14:05:53.099Z,14.75
2022-10-18T14:08:35.406Z,14.35
2022-10-18T14:11:26.572Z,13.13
2022-10-18T14:14:09.638Z,14.20
2022-10-18T14:16:51.654Z,16.65
2022-10-18T14:19:35.995Z,14.73
2022-10-18T14:22:18.299Z,15.18
2022-10-18T14:24:58.882Z,13.73
2022-10-18T14:27:35.320Z,14.00
2022-10-18T14:30:14.667Z,14.23
2022-10-18T14:32:50.447Z,13.60
2022-10-18T14:35:33.833Z,13.30
2022-10-18T14:38:15.790Z,12.95
2022-10-18T14:40:50.040Z,13.77
2022-10-18T14:43:24.128Z,12.73
2022-10-18T14:46:10.678Z,10.63
2022-10-18T14:48:53.213Z,11.82
2022-10-18T14:51:28.174Z,11.65
2022-10-18T14:54:04.219Z,12.02
2022-10-18T14:56:41.354Z,12.02
2022-10-18T14:59:20.195Z,10.73
2022-10-18T15:01:57.949Z,10.52
2022-10-18T15:04:33.990Z,11.05
2022-10-18T15:07:14.674Z,10.05
2022-10-18T15:09:50.404Z,11.68
2022-10-18T15:12:24.911Z,18.10
2022-10-18T15:15:01.475Z,14.13
2022-10-18T15:17:36.769Z,14.82
2022-10-18T15:20:22.962Z,13.80
2022-10-18T15:23:22.476Z,14.43
2022-10-18T15:26:03.948Z,14.80
2022-10-18T15:28:49.949Z,15.27
2022-10-18T15:31:26.813Z,14.23
2022-10-18T15:34:11.900Z,16.33
2022-10-18T15:36:46.471Z,16.13
2022-10-18T15:39:22.896Z,15.63
2022-10-18T15:41:59.795Z,15.43
2022-10-18T15:44:35.329Z,15.07
2022-10-18T15:47:21.454Z,13.82
2022-10-18T15:49:57.055Z,12.90
2022-10-18T15:52:38.759Z,12.20
2022-10-18T15:55:48.959Z,11.68
2022-10-18T15:58:26.246Z,11.65
2022-10-18T16:01:02.751Z,10.63
2022-10-18T16:03:38.800Z,9.88
2022-10-18T16:06:16.049Z,10.63
2022-10-18T16:08:53.999Z,9.43
2022-10-18T16:11:28.572Z,8.75
2022-10-18T16:14:03.921Z,8.30
2022-10-18T16:16:37.869Z,8.38
2022-10-18T16:19:14.943Z,8.75
2022-10-18T16:21:48.855Z,8.15
2022-10-18T16:24:24.134Z,7.55
2022-10-18T16:26:58.606Z,7.57
2022-10-18T16:29:34.137Z,7.70
2022-10-18T16:32:08.047Z,7.40
2022-10-18T16:34:41.963Z,8.18
2022-10-18T16:37:15.928Z,6.90
2022-10-18T16:39:49.792Z,6.25
2022-10-18T16:42:23.666Z,7.47
2022-10-18T16:44:59.043Z,5.70
2022-10-18T16:47:32.934Z,5.60
2022-10-18T16:50:13.102Z,5.97
2022-10-18T16:52:47.032Z,6.03
2022-10-18T16:55:25.094Z,6.10
2022-10-18T16:57:58.955Z,5.43
2022-10-18T17:00:34.780Z,5.20
2022-10-18T17:03:08.756Z,5.40
2022-10-18T17:05:43.337Z,5.78
2022-10-18T17:08:20.670Z,5.80
2022-10-18T17:10:56.219Z,5.40
2022-10-18T17:13:30.297Z,5.10
2022-10-18T17:16:06.311Z,5.20
2022-10-18T17:18:40.175Z,4.88
2022-10-18T17:21:14.050Z,5.15
2022-10-18T17:23:48.036Z,4.60
2022-10-18T17:26:28.793Z,5.68
2022-10-18T17:29:06.829Z,5.18
2022-10-18T17:31:42.153Z,5.72
2022-10-18T17:34:21.451Z,5.97
2022-10-18T17:36:56.092Z,5.47
2022-10-18T17:39:31.042Z,5.03
2022-10-18T17:42:08.272Z,5.75
2022-10-18T17:44:44.420Z,5.85
2022-10-18T17:47:20.608Z,5.53
2022-10-18T17:49:54.625Z,5.57
2022-10-18T17:52:28.597Z,5.38
2022-10-18T17:55:02.523Z,4.90
2022-10-18T17:57:36.601Z,5.03
2022-10-18T18:00:13.234Z,4.13
2022-10-18T18:02:49.925Z,5.18
2022-10-18T18:05:23.922Z,4.80
2022-10-18T18:08:02.954Z,3.83
2022-10-18T18:10:38.371Z,3.92
2022-10-18T18:13:15.111Z,4.40
2022-10-18T18:15:51.555Z,4.47
2022-10-18T18:18:26.910Z,3.33
2022-10-18T18:21:00.814Z,3.90
2022-10-18T18:23:34.787Z,3.63
2022-10-18T18:26:08.946Z,4.05
2022-10-18T18:28:43.818Z,4.57
2022-10-18T18:31:20.051Z,3.90
2022-10-18T18:33:56.571Z,4.10
2022-10-18T18:36:32.561Z,3.97
2022-10-18T18:39:07.118Z,3.38
2022-10-18T18:41:41.336Z,3.85
2022-10-18T18:44:15.303Z,3.78
2022-10-18T18:46:49.342Z,4.10
2022-10-18T18:49:24.723Z,3.85
2022-10-18T18:51:58.640Z,3.92
2022-10-18T18:54:32.744Z,4.32
2022-10-18T18:57:06.669Z,4.80
2022-10-18T18:59:40.650Z,4.65
2022-10-18T19:02:14.691Z,4.47
2022-10-18T19:04:50.926Z,4.57
2022-10-18T19:07:24.871Z,4.85
2022-10-18T19:09:58.858Z,4.35
2022-10-18T19:12:32.802Z,4.85
2022-10-18T19:15:08.285Z,5.32
2022-10-18T19:17:42.188Z,4.85
2022-10-18T19:20:18.013Z,4.85
2022-10-18T19:22:51.872Z,4.38
2022-10-18T19:25:27.041Z,4.45
2022-10-18T19:28:01.050Z,4.95
2022-10-18T19:30:35.029Z,3.72
2022-10-18T19:33:09.817Z,5.00
2022-10-18T19:35:45.163Z,4.85
2022-10-18T19:38:19.043Z,5.35
2022-10-18T19:40:53.818Z,4.45
2022-10-18T19:43:28.663Z,4.70
2022-10-18T19:46:04.108Z,4.35
2022-10-18T19:48:38.011Z,4.35
2022-10-18T19:51:17.363Z,4.57
2022-10-18T19:53:56.273Z,3.92
2022-10-18T19:56:31.346Z,4.97
2022-10-18T19:59:05.700Z,4.70
2022-10-18T20:01:40.209Z,4.32
2022-10-18T20:04:16.537Z,4.22
2022-10-18T20:06:51.904Z,4.80
2022-10-18T20:09:25.985Z,4.03
2022-10-18T20:12:00.413Z,4.30
2022-10-18T20:14:34.358Z,4.80
2022-10-18T20:17:12.197Z,4.03
2022-10-18T20:19:46.087Z,3.85
2022-10-18T20:22:21.437Z,4.07
2022-10-18T20:24:56.017Z,4.07
2022-10-18T20:27:32.074Z,4.35
2022-10-18T20:30:10.427Z,4.38
2022-10-18T20:32:45.494Z,4.50
2022-10-18T20:35:19.468Z,4.40
2022-10-18T20:37:54.822Z,5.07
2022-10-18T20:40:28.758Z,4.55
2022-10-18T20:43:03.849Z,4.63
2022-10-18T20:45:37.960Z,4.20
2022-10-18T20:48:11.881Z,4.15
2022-10-18T20:50:45.886Z,4.20
2022-10-18T20:53:22.593Z,4.70
2022-10-18T20:56:04.491Z,4.47
2022-10-18T20:58:39.362Z,4.20
2022-10-18T21:01:15.536Z,4.55
2022-10-18T21:03:51.037Z,4.25
2022-10-18T21:06:26.422Z,4.20
2022-10-18T21:09:02.943Z,4.00
2022-10-18T21:11:40.026Z,4.22
2022-10-18T21:14:16.019Z,4.28
2022-10-18T21:16:51.013Z,4.07
2022-10-18T21:19:26.705Z,4.00
2022-10-18T21:22:00.616Z,4.47
2022-10-18T21:24:36.285Z,4.32
2022-10-18T21:27:10.253Z,3.97
2022-10-18T21:29:44.264Z,5.40
2022-10-18T21:32:18.659Z,5.05
2022-10-18T21:34:52.870Z,4.78
2022-10-18T21:37:28.023Z,4.65
2022-10-18T21:40:03.525Z,4.53
2022-10-18T21:42:37.442Z,4.75
2022-10-18T21:45:11.803Z,4.05
2022-10-18T21:47:45.902Z,5.07
2022-10-18T21:50:19.804Z,4.40
2022-10-18T21:52:53.719Z,5.05
2022-10-18T21:55:29.183Z,4.90
2022-10-18T21:58:03.495Z,5.60
2022-10-18T22:00:37.621Z,5.13
2022-10-18T22:03:13.124Z,5.13
2022-10-18T22:05:47.348Z,5.28
2022-10-18T22:08:21.349Z,4.70
2022-10-18T22:10:57.947Z,4.85
2022-10-18T22:13:32.343Z,5.60
2022-10-18T22:16:07.863Z,4.88
2022-10-18T22:18:42.438Z,4.78
2022-10-18T22:21:19.509Z,6.07
2022-10-18T22:23:54.879Z,5.00
2022-10-18T22:26:32.273Z,5.20
2022-10-18T22:29:08.916Z,5.28
2022-10-18T22:31:44.511Z,5.90
2022-10-18T22:34:20.565Z,4.68
2022-10-18T22:36:54.546Z,4.75
2022-10-18T22:39:28.583Z,5.63
2022-10-18T22:42:05.807Z,5.10
2022-10-18T22:44:39.972Z,5.72
2022-10-18T22:47:13.893Z,6.03
2022-10-18T22:49:47.741Z,5.63
2022-10-18T22:52:21.663Z,6.47
2022-10-18T22:54:55.525Z,6.18
2022-10-18T22:57:32.121Z,5.57
2022-10-18T23:00:07.115Z,6.35
2022-10-18T23:02:41.062Z,5.55
2022-10-18T23:05:15.272Z,6.03
2022-10-18T23:07:50.370Z,5.53
2022-10-18T23:10:24.242Z,5.57
2022-10-18T23:12:59.649Z,5.03
2022-10-18T23:15:33.833Z,5.90
2022-10-18T23:18:08.031Z,6.00
2022-10-18T23:20:42.038Z,5.80
2022-10-18T23:23:16.200Z,6.05
2022-10-18T23:25:51.751Z,5.32
2022-10-18T23:28:27.385Z,5.53
2022-10-18T23:31:05.849Z,5.50
2022-10-18T23:33:40.654Z,5.32
2022-10-18T23:36:15.281Z,5.15
2022-10-18T23:38:49.429Z,5.53
2022-10-18T23:41:23.769Z,5.68
2022-10-18T23:43:59.232Z,5.35
2022-10-18T23:46:33.211Z,5.40
2022-10-18T23:49:07.151Z,4.78
2022-10-18T23:51:41.314Z,5.65
2022-10-18T23:54:15.277Z,5.75
2022-10-18T23:56:49.299Z,5.13
2022-10-18T23:59:24.777Z,5.78
